createdAt,value
2019-03-30T00:00:51.836Z,68.90
2019-03-30T00:03:21.536Z,68.70
2019-03-30T00:05:51.113Z,68.40
2019-03-30T00:08:20.755Z,68.40
2019-03-30T00:10:50.297Z,68.50
2019-03-30T00:13:19.975Z,68.70
2019-03-30T00:15:49.495Z,68.70
2019-03-30T00:18:18.930Z,68.20
2019-03-30T00:20:48.491Z,68.20
2019-03-30T00:23:17.981Z,68.30
2019-03-30T00:25:47.689Z,68.20
2019-03-30T00:28:17.354Z,68.10
2019-03-30T00:30:46.994Z,68.40
2019-03-30T00:33:16.467Z,68.20
2019-03-30T00:35:46.085Z,68.50
2019-03-30T00:38:15.609Z,68.40
2019-03-30T00:40:45.225Z,68.40
2019-03-30T00:43:14.727Z,68.20
2019-03-30T00:45:44.394Z,68.90
2019-03-30T00:48:13.992Z,69.30
2019-03-30T00:50:43.609Z,69.50
2019-03-30T00:53:13.245Z,69.90
2019-03-30T00:55:42.866Z,69.70
2019-03-30T00:58:12.436Z,70.60
2019-03-30T01:00:42.051Z,70.50
2019-03-30T01:03:11.527Z,71.00
2019-03-30T01:05:41.335Z,70.70
2019-03-30T01:08:10.969Z,70.70
2019-03-30T01:10:40.620Z,71.20
2019-03-30T01:13:10.240Z,71.60
2019-03-30T01:15:39.931Z,71.70
2019-03-30T01:18:09.552Z,71.50
2019-03-30T01:20:39.098Z,71.80
2019-03-30T01:23:08.633Z,71.60
2019-03-30T01:25:38.231Z,71.10
2019-03-30T01:28:07.858Z,70.50
2019-03-30T01:30:37.406Z,70.70
2019-03-30T01:33:06.967Z,70.20
2019-03-30T01:35:36.586Z,69.40
2019-03-30T01:38:06.206Z,70.20
2019-03-30T01:40:35.888Z,71.30
2019-03-30T01:43:05.581Z,72.50
2019-03-30T01:45:35.217Z,72.80
2019-03-30T01:48:04.772Z,73.20
2019-03-30T01:50:34.692Z,74.20
2019-03-30T01:53:04.305Z,73.90
2019-03-30T01:55:33.858Z,74.30
2019-03-30T01:58:03.467Z,74.20
2019-03-30T02:00:33.135Z,74.60
2019-03-30T02:03:02.711Z,74.20
2019-03-30T02:05:32.343Z,74.50
2019-03-30T02:08:01.812Z,74.60
2019-03-30T02:10:44.745Z,74.10
2019-03-30T02:13:14.292Z,73.60
2019-03-30T02:15:43.930Z,73.10
2019-03-30T02:18:13.538Z,73.50
2019-03-30T02:20:44.585Z,72.90
2019-03-30T02:23:14.231Z,73.30
2019-03-30T02:25:43.845Z,73.40
2019-03-30T02:28:13.488Z,73.30
2019-03-30T02:30:43.090Z,73.20
2019-03-30T02:33:12.804Z,73.40
2019-03-30T02:35:42.351Z,73.40
2019-03-30T02:38:12.011Z,72.70
2019-03-30T02:40:41.746Z,72.80
2019-03-30T02:43:11.435Z,73.30
2019-03-30T02:45:41.028Z,73.20
2019-03-30T02:48:10.660Z,73.30
2019-03-30T02:50:49.124Z,73.80
2019-03-30T02:53:11.636Z,73.70
2019-03-30T02:55:41.259Z,73.70
2019-03-30T02:58:10.897Z,73.20
2019-03-30T03:00:40.618Z,73.30
2019-03-30T03:03:10.319Z,73.10
2019-03-30T03:05:40.226Z,73.30
2019-03-30T03:08:09.845Z,73.30
2019-03-30T03:10:45.506Z,73.20
2019-03-30T03:13:15.222Z,73.60
2019-03-30T03:15:44.785Z,73.40
2019-03-30T03:18:14.255Z,72.80
2019-03-30T03:20:43.964Z,73.00
2019-03-30T03:23:13.571Z,73.40
2019-03-30T03:25:43.105Z,73.70
2019-03-30T03:28:12.687Z,74.00
2019-03-30T03:30:42.304Z,73.60
2019-03-30T03:33:12.006Z,73.50
2019-03-30T03:35:41.643Z,73.50
2019-03-30T03:38:11.191Z,73.20
2019-03-30T03:40:40.722Z,73.40
2019-03-30T03:43:10.355Z,73.60
2019-03-30T03:45:40.074Z,73.40
2019-03-30T03:48:09.603Z,74.10
2019-03-30T03:50:47.037Z,74.20
2019-03-30T03:53:17.482Z,74.80
2019-03-30T03:55:48.011Z,74.70
2019-03-30T03:58:18.483Z,74.70
2019-03-30T04:00:49.304Z,74.30
2019-03-30T04:03:18.988Z,74.60
2019-03-30T04:05:48.866Z,74.70
2019-03-30T04:08:18.664Z,74.20
2019-03-30T04:10:49.757Z,73.40
2019-03-30T04:13:19.460Z,73.20
2019-03-30T04:15:49.345Z,72.70
2019-03-30T04:18:19.413Z,72.30
2019-03-30T04:20:49.029Z,72.80
2019-03-30T04:23:18.594Z,73.70
2019-03-30T04:25:48.329Z,73.40
2019-03-30T04:28:17.891Z,73.20
2019-03-30T04:30:47.599Z,73.10
2019-03-30T04:33:17.203Z,73.20
2019-03-30T04:35:46.906Z,72.70
2019-03-30T04:38:16.521Z,72.80
2019-03-30T04:40:46.151Z,73.40
2019-03-30T04:43:15.763Z,73.90
2019-03-30T04:45:45.334Z,74.10
2019-03-30T04:48:15.056Z,74.20
2019-03-30T04:50:44.750Z,74.10
2019-03-30T04:53:14.372Z,74.50
2019-03-30T04:55:43.975Z,74.00
2019-03-30T04:58:13.520Z,73.40
2019-03-30T05:00:43.133Z,73.40
2019-03-30T05:03:12.828Z,73.60
2019-03-30T05:05:43.268Z,73.80
2019-03-30T05:08:13.133Z,74.00
2019-03-30T05:10:42.766Z,73.80
2019-03-30T05:13:12.419Z,73.70
2019-03-30T05:15:42.109Z,73.60
2019-03-30T05:18:11.627Z,73.50
2019-03-30T05:20:41.250Z,73.80
2019-03-30T05:23:10.891Z,73.60
2019-03-30T05:25:40.454Z,74.00
2019-03-30T05:28:10.004Z,73.70
2019-03-30T05:30:39.706Z,73.90
2019-03-30T05:33:09.303Z,73.40
2019-03-30T05:35:38.862Z,73.70
2019-03-30T05:38:08.530Z,73.70
2019-03-30T05:40:38.024Z,74.00
2019-03-30T05:43:07.712Z,73.90
2019-03-30T05:45:37.348Z,74.10
2019-03-30T05:48:06.914Z,73.90
2019-03-30T05:50:36.519Z,73.50
2019-03-30T05:53:06.069Z,74.40
2019-03-30T05:55:36.157Z,75.00
2019-03-30T05:58:05.705Z,73.80
2019-03-30T06:00:35.314Z,74.00
2019-03-30T06:03:04.970Z,74.20
2019-03-30T06:05:34.594Z,74.60
2019-03-30T06:08:04.283Z,75.00
2019-03-30T06:10:34.731Z,74.30
2019-03-30T06:13:04.343Z,74.10
2019-03-30T06:15:33.990Z,74.10
2019-03-30T06:18:03.693Z,74.40
2019-03-30T06:20:33.325Z,74.70
2019-03-30T06:23:02.846Z,75.10
2019-03-30T06:25:32.509Z,75.40
2019-03-30T06:28:02.071Z,75.50
2019-03-30T06:30:32.178Z,76.00
2019-03-30T06:33:01.727Z,76.20
2019-03-30T06:35:31.411Z,76.00
2019-03-30T06:38:01.044Z,76.10
2019-03-30T06:40:30.576Z,75.80
2019-03-30T06:43:00.124Z,76.00
2019-03-30T06:45:29.754Z,75.80
2019-03-30T06:47:59.284Z,75.60
2019-03-30T06:50:28.759Z,75.10
2019-03-30T06:52:59.019Z,74.80
2019-03-30T06:55:28.777Z,74.60
2019-03-30T06:58:18.139Z,73.90
2019-03-30T07:00:48.063Z,73.70
2019-03-30T07:03:17.678Z,72.90
2019-03-30T07:05:47.379Z,72.90
2019-03-30T07:08:17.404Z,73.00
2019-03-30T07:10:47.672Z,73.10
2019-03-30T07:13:17.571Z,73.50
2019-03-30T07:15:48.305Z,73.20
2019-03-30T07:18:18.619Z,73.10
2019-03-30T07:20:48.658Z,73.10
2019-03-30T07:23:18.286Z,72.80
2019-03-30T07:25:48.012Z,72.30
2019-03-30T07:28:17.667Z,72.10
2019-03-30T07:30:47.322Z,71.80
2019-03-30T07:33:16.892Z,72.00
2019-03-30T07:35:46.549Z,72.00
2019-03-30T07:38:16.252Z,72.40
2019-03-30T07:40:45.779Z,72.90
2019-03-30T07:43:15.407Z,72.60
2019-03-30T07:45:45.035Z,72.80
2019-03-30T07:48:14.647Z,73.20
2019-03-30T07:50:44.195Z,73.00
2019-03-30T07:53:25.572Z,72.90
2019-03-30T07:55:44.934Z,71.50
2019-03-30T07:58:14.591Z,70.50
2019-03-30T08:00:44.236Z,69.90
2019-03-30T08:03:13.874Z,69.90
2019-03-30T08:05:43.582Z,69.60
2019-03-30T08:08:13.135Z,69.20
2019-03-30T08:10:44.003Z,70.30
2019-03-30T08:13:13.622Z,71.30
2019-03-30T08:15:43.182Z,71.70
2019-03-30T08:18:12.807Z,70.60
2019-03-30T08:20:42.396Z,71.90
2019-03-30T08:23:11.949Z,70.20
2019-03-30T08:25:41.564Z,70.00
2019-03-30T08:28:11.282Z,70.20
2019-03-30T08:30:40.918Z,70.30
2019-03-30T08:33:10.575Z,69.30
2019-03-30T08:35:40.128Z,69.10
2019-03-30T08:38:09.684Z,69.60
2019-03-30T08:40:39.340Z,69.00
2019-03-30T08:43:08.989Z,68.20
2019-03-30T08:45:38.631Z,68.90
2019-03-30T08:48:08.187Z,68.50
2019-03-30T08:50:37.890Z,68.90
2019-03-30T08:53:07.442Z,68.60
2019-03-30T08:55:37.089Z,68.20
2019-03-30T08:58:06.800Z,67.70
2019-03-30T09:00:40.640Z,67.90
2019-03-30T09:03:10.869Z,68.30
2019-03-30T09:05:40.574Z,68.30
2019-03-30T09:08:10.348Z,68.10
2019-03-30T09:10:40.062Z,68.20
2019-03-30T09:13:09.783Z,67.80
2019-03-30T09:15:39.495Z,68.20
2019-03-30T09:18:09.130Z,68.50
2019-03-30T09:20:38.610Z,67.70
2019-03-30T09:23:08.293Z,67.70
2019-03-30T09:25:37.904Z,67.80
2019-03-30T09:28:07.562Z,68.00
2019-03-30T09:30:37.274Z,68.80
2019-03-30T09:33:06.863Z,68.20
2019-03-30T09:35:36.399Z,67.50
2019-03-30T09:38:06.064Z,68.60
2019-03-30T09:40:35.624Z,67.30
2019-03-30T09:43:05.361Z,68.40
2019-03-30T09:45:35.654Z,67.40
2019-03-30T09:48:05.322Z,67.30
2019-03-30T09:50:34.920Z,67.20
2019-03-30T09:53:05.336Z,67.80
2019-03-30T09:55:35.059Z,66.80
2019-03-30T09:58:04.777Z,67.60
2019-03-30T10:00:34.355Z,68.40
2019-03-30T10:03:06.079Z,68.70
2019-03-30T10:05:35.352Z,67.90
2019-03-30T10:08:05.017Z,67.00
2019-03-30T10:10:34.948Z,66.70
2019-03-30T10:13:04.658Z,67.00
2019-03-30T10:15:34.348Z,67.30
2019-03-30T10:18:10.611Z,66.10
2019-03-30T10:20:40.847Z,65.70
2019-03-30T10:23:27.760Z,65.30
2019-03-30T10:26:18.976Z,65.80
2019-03-30T10:28:48.686Z,65.00
2019-03-30T10:31:18.317Z,64.80
2019-03-30T10:33:47.796Z,64.80
2019-03-30T10:36:17.416Z,64.00
2019-03-30T10:38:46.941Z,64.30
2019-03-30T10:41:35.412Z,64.20
2019-03-30T10:44:05.124Z,64.00
2019-03-30T10:46:34.869Z,64.10
2019-03-30T10:49:04.575Z,63.40
2019-03-30T10:56:05.026Z,62.80
2019-03-30T11:01:38.936Z,61.90
2019-03-30T11:04:30.552Z,62.70
2019-03-30T11:07:00.147Z,54.90
2019-03-30T11:09:29.636Z,52.20
2019-03-30T11:11:59.267Z,52.70
2019-03-30T11:14:28.733Z,49.10
2019-03-30T11:16:58.276Z,49.70
2019-03-30T11:19:27.834Z,48.00
2019-03-30T11:21:57.298Z,47.40
2019-03-30T11:24:26.920Z,48.80
2019-03-30T11:26:56.402Z,47.90
2019-03-30T11:29:25.862Z,49.90
2019-03-30T11:31:55.457Z,47.50
2019-03-30T11:34:25.196Z,47.60
2019-03-30T11:36:55.286Z,45.90
2019-03-30T11:39:25.009Z,48.10
2019-03-30T11:42:00.085Z,49.80
2019-03-30T11:44:30.225Z,49.60
2019-03-30T11:46:59.912Z,48.30
2019-03-30T11:49:30.038Z,49.00
2019-03-30T11:51:59.964Z,47.70
2019-03-30T11:54:30.186Z,50.10
2019-03-30T11:57:00.614Z,47.40
2019-03-30T11:59:30.600Z,48.30
2019-03-30T12:02:00.708Z,48.40
2019-03-30T12:04:30.673Z,48.80
2019-03-30T12:07:00.342Z,49.20
2019-03-30T12:09:29.900Z,47.50
2019-03-30T12:11:59.566Z,47.70
2019-03-30T12:14:29.123Z,47.50
2019-03-30T12:16:58.657Z,47.50
2019-03-30T12:19:28.243Z,47.00
2019-03-30T12:21:57.703Z,48.40
2019-03-30T12:24:27.345Z,46.00
2019-03-30T12:26:56.983Z,44.90
2019-03-30T12:29:26.644Z,45.50
2019-03-30T12:31:56.246Z,45.50
2019-03-30T12:34:25.850Z,46.80
2019-03-30T12:36:55.873Z,45.80
2019-03-30T12:39:25.811Z,46.10
2019-03-30T12:41:55.363Z,45.50
2019-03-30T12:44:25.035Z,45.00
2019-03-30T12:46:54.743Z,45.10
2019-03-30T12:49:24.315Z,45.60
2019-03-30T12:51:53.811Z,44.60
2019-03-30T12:54:23.423Z,45.70
2019-03-30T12:56:53.080Z,42.90
2019-03-30T12:59:22.560Z,44.10
2019-03-30T13:01:52.170Z,43.70
2019-03-30T13:04:21.770Z,43.40
2019-03-30T13:06:51.387Z,41.80
2019-03-30T13:09:21.079Z,42.40
2019-03-30T13:11:50.685Z,41.50
2019-03-30T13:14:20.383Z,40.80
2019-03-30T13:16:50.189Z,41.70
2019-03-30T13:19:19.810Z,41.50
2019-03-30T13:21:52.747Z,42.30
2019-03-30T13:24:20.723Z,41.40
2019-03-30T13:26:50.230Z,38.50
2019-03-30T13:29:19.853Z,37.40
2019-03-30T13:31:49.549Z,37.30
2019-03-30T13:34:19.134Z,40.10
2019-03-30T13:36:48.779Z,40.10
2019-03-30T13:39:18.355Z,40.00
2019-03-30T13:41:47.843Z,39.20
2019-03-30T13:44:17.450Z,38.20
2019-03-30T13:46:47.086Z,39.50
2019-03-30T13:49:16.630Z,39.30
2019-03-30T13:51:46.113Z,35.30
2019-03-30T13:54:15.802Z,35.20
2019-03-30T13:56:45.427Z,32.90
2019-03-30T13:59:15.019Z,32.50
2019-03-30T14:01:44.754Z,31.60
2019-03-30T14:04:14.323Z,32.00
2019-03-30T14:06:43.867Z,30.60
2019-03-30T14:09:13.514Z,28.70
2019-03-30T14:11:43.162Z,28.00
2019-03-30T14:14:12.780Z,26.40
2019-03-30T14:16:42.425Z,25.80
2019-03-30T14:19:12.004Z,25.90
2019-03-30T14:21:41.667Z,26.30
2019-03-30T14:24:11.263Z,25.90
2019-03-30T14:26:40.736Z,26.30
2019-03-30T14:29:10.336Z,26.30
2019-03-30T14:31:39.878Z,26.70
2019-03-30T14:34:09.414Z,27.00
2019-03-30T14:36:38.890Z,25.80
2019-03-30T14:39:08.666Z,26.30
2019-03-30T14:41:38.565Z,25.50
2019-03-30T14:44:14.916Z,25.00
2019-03-30T14:46:54.754Z,25.20
2019-03-30T14:49:46.573Z,25.30
2019-03-30T14:52:44.358Z,24.80
2019-03-30T14:55:29.751Z,25.50
2019-03-30T14:58:01.503Z,24.50
2019-03-30T15:00:30.173Z,25.60
2019-03-30T15:03:00.176Z,25.20
2019-03-30T15:05:30.875Z,24.80
2019-03-30T15:08:01.767Z,24.50
2019-03-30T15:10:43.209Z,25.10
2019-03-30T15:13:13.507Z,25.90
2019-03-30T15:15:43.604Z,25.20
2019-03-30T15:18:13.814Z,25.30
2019-03-30T15:20:44.324Z,26.00
2019-03-30T15:26:05.806Z,25.60
2019-03-30T15:28:42.750Z,25.10
2019-03-30T15:31:14.560Z,25.20
2019-03-30T15:33:44.210Z,25.40
2019-03-30T15:36:14.085Z,25.50
2019-03-30T15:38:43.622Z,25.80
2019-03-30T15:41:13.162Z,26.20
2019-03-30T15:43:42.814Z,26.90
2019-03-30T15:46:14.254Z,27.10
2019-03-30T15:48:43.767Z,27.70
2019-03-30T15:51:13.405Z,27.40
2019-03-30T15:53:42.899Z,27.60
2019-03-30T15:56:12.640Z,27.50
2019-03-30T15:58:42.405Z,27.60
2019-03-30T16:01:12.232Z,28.00
2019-03-30T16:03:41.906Z,29.20
2019-03-30T16:06:11.629Z,30.40
2019-03-30T16:08:41.142Z,30.00
2019-03-30T16:11:10.888Z,30.00
2019-03-30T16:13:40.485Z,29.80
2019-03-30T16:16:10.103Z,30.10
2019-03-30T16:18:39.647Z,31.20
2019-03-30T16:21:09.344Z,30.80
2019-03-30T16:23:57.822Z,30.60
2019-03-30T16:26:40.974Z,31.50
2019-03-30T16:28:58.807Z,32.00
2019-03-30T16:31:28.457Z,32.60
2019-03-30T16:33:58.615Z,31.70
2019-03-30T16:36:28.194Z,32.20
2019-03-30T16:38:57.804Z,32.40
2019-03-30T16:41:27.420Z,33.40
2019-03-30T16:43:57.147Z,34.00
2019-03-30T16:46:26.711Z,34.60
2019-03-30T16:48:56.335Z,34.30
2019-03-30T16:51:25.797Z,34.30
2019-03-30T16:53:55.478Z,34.60
2019-03-30T16:56:25.027Z,35.70
2019-03-30T16:58:54.554Z,36.40
2019-03-30T17:01:24.131Z,36.50
2019-03-30T17:03:53.680Z,36.60
2019-03-30T17:06:23.234Z,37.40
2019-03-30T17:08:52.767Z,38.50
2019-03-30T17:11:22.353Z,39.60
2019-03-30T17:13:51.897Z,41.10
2019-03-30T17:16:21.538Z,41.30
2019-03-30T17:18:50.996Z,41.20
2019-03-30T17:21:20.471Z,40.80
2019-03-30T17:23:50.019Z,41.60
2019-03-30T17:26:19.613Z,42.00
2019-03-30T17:28:49.251Z,42.80
2019-03-30T17:31:18.702Z,43.00
2019-03-30T17:33:48.252Z,43.60
2019-03-30T17:36:17.742Z,44.00
2019-03-30T17:38:47.260Z,44.20
2019-03-30T17:41:16.942Z,44.30
2019-03-30T17:43:46.430Z,44.50
2019-03-30T17:46:16.231Z,44.80
2019-03-30T17:48:45.859Z,45.50
2019-03-30T17:51:15.534Z,45.80
2019-03-30T17:53:45.047Z,45.80
2019-03-30T17:56:14.771Z,46.20
2019-03-30T17:58:44.253Z,46.20
2019-03-30T18:01:15.719Z,46.10
2019-03-30T18:03:45.239Z,46.40
2019-03-30T18:06:14.839Z,47.10
2019-03-30T18:08:44.477Z,47.60
2019-03-30T18:11:14.208Z,48.20
2019-03-30T18:13:43.746Z,48.90
2019-03-30T18:16:13.214Z,49.10
2019-03-30T18:18:42.690Z,49.50
2019-03-30T18:21:12.231Z,49.60
2019-03-30T18:23:41.791Z,49.60
2019-03-30T18:26:11.349Z,49.60
2019-03-30T18:28:40.911Z,50.50
2019-03-30T18:31:10.639Z,50.70
2019-03-30T18:33:40.332Z,50.60
2019-03-30T18:36:09.975Z,50.60
2019-03-30T18:38:40.219Z,51.00
2019-03-30T18:41:09.794Z,50.80
2019-03-30T18:43:39.513Z,51.30
2019-03-30T18:46:09.026Z,51.10
2019-03-30T18:48:38.687Z,51.40
2019-03-30T18:51:08.342Z,51.80
2019-03-30T18:53:37.970Z,51.70
2019-03-30T18:56:07.577Z,52.00
2019-03-30T18:58:41.967Z,52.50
2019-03-30T19:01:08.509Z,52.80
2019-03-30T19:03:38.034Z,53.00
2019-03-30T19:06:07.669Z,53.20
2019-03-30T19:08:37.334Z,53.20
2019-03-30T19:11:07.018Z,53.20
2019-03-30T19:13:36.541Z,53.50
2019-03-30T19:16:06.155Z,53.80
2019-03-30T19:18:35.793Z,53.80
2019-03-30T19:21:05.412Z,53.80
2019-03-30T19:23:34.875Z,54.50
2019-03-30T19:26:04.604Z,54.50
2019-03-30T19:28:34.234Z,54.10
2019-03-30T19:31:03.944Z,53.70
2019-03-30T19:33:33.647Z,54.00
2019-03-30T19:36:03.239Z,54.40
2019-03-30T19:38:32.795Z,54.30
2019-03-30T19:41:02.486Z,54.00
2019-03-30T19:43:32.030Z,54.30
2019-03-30T19:46:01.660Z,54.10
2019-03-30T19:48:31.279Z,54.40
2019-03-30T19:51:00.840Z,54.30
2019-03-30T19:53:30.379Z,54.80
2019-03-30T19:56:00.073Z,55.30
2019-03-30T19:58:29.637Z,55.20
2019-03-30T20:00:59.336Z,54.80
2019-03-30T20:03:29.038Z,55.60
2019-03-30T20:05:58.592Z,55.70
2019-03-30T20:08:28.205Z,55.60
2019-03-30T20:10:57.835Z,56.20
2019-03-30T20:13:27.299Z,56.50
2019-03-30T20:15:56.863Z,56.90
2019-03-30T20:18:26.403Z,57.00
2019-03-30T20:20:55.905Z,57.20
2019-03-30T20:23:25.438Z,57.40
2019-03-30T20:25:55.186Z,57.60
2019-03-30T20:28:24.825Z,57.50
2019-03-30T20:30:54.495Z,57.40
2019-03-30T20:33:24.065Z,57.70
2019-03-30T20:35:53.547Z,57.80
2019-03-30T20:38:23.096Z,58.10
2019-03-30T20:40:52.643Z,58.00
2019-03-30T20:43:22.208Z,57.80
2019-03-30T20:45:51.677Z,58.20
2019-03-30T20:48:21.210Z,58.50
2019-03-30T20:50:50.687Z,58.60
2019-03-30T20:53:20.323Z,58.60
2019-03-30T20:55:49.867Z,58.60
2019-03-30T20:58:19.483Z,58.50
2019-03-30T21:00:49.074Z,58.40
2019-03-30T21:03:18.612Z,58.70
2019-03-30T21:05:48.287Z,58.90
2019-03-30T21:08:17.890Z,59.10
2019-03-30T21:10:47.462Z,59.00
2019-03-30T21:13:17.003Z,59.10
2019-03-30T21:15:46.794Z,59.40
2019-03-30T21:18:16.316Z,59.20
2019-03-30T21:20:45.825Z,59.30
2019-03-30T21:23:15.395Z,59.50
2019-03-30T21:25:45.024Z,59.30
2019-03-30T21:28:14.683Z,59.10
2019-03-30T21:30:44.372Z,59.60
2019-03-30T21:33:13.952Z,59.70
2019-03-30T21:35:43.567Z,59.60
2019-03-30T21:38:13.152Z,59.70
2019-03-30T21:40:42.686Z,59.30
2019-03-30T21:43:12.148Z,59.00
2019-03-30T21:45:41.675Z,58.70
2019-03-30T21:48:11.278Z,58.60
2019-03-30T21:50:40.756Z,59.10
2019-03-30T21:53:10.295Z,59.40
2019-03-30T21:55:39.795Z,59.10
2019-03-30T21:58:09.355Z,59.80
2019-03-30T22:00:39.786Z,59.90
2019-03-30T22:03:10.163Z,59.70
2019-03-30T22:05:40.354Z,59.60
2019-03-30T22:08:09.916Z,59.70
2019-03-30T22:10:39.480Z,59.20
2019-03-30T22:13:09.116Z,59.80
2019-03-30T22:15:38.683Z,59.80
2019-03-30T22:18:08.309Z,59.80
2019-03-30T22:20:37.854Z,59.60
2019-03-30T22:23:07.410Z,59.10
2019-03-30T22:25:37.062Z,59.10
2019-03-30T22:28:06.575Z,59.30
2019-03-30T22:30:36.053Z,60.20
2019-03-30T22:33:05.711Z,60.70
2019-03-30T22:35:35.298Z,60.80
2019-03-30T22:38:04.985Z,60.40
2019-03-30T22:40:53.372Z,60.30
2019-03-30T22:43:22.927Z,60.10
2019-03-30T22:45:52.425Z,60.20
2019-03-30T22:48:21.995Z,60.30
2019-03-30T22:50:51.540Z,61.00
2019-03-30T22:53:21.178Z,61.20
2019-03-30T22:55:50.659Z,61.30
2019-03-30T22:58:20.359Z,61.40
2019-03-30T23:00:59.158Z,61.30
2019-03-30T23:03:28.800Z,61.10
2019-03-30T23:05:58.417Z,61.20
2019-03-30T23:08:28.123Z,61.90
2019-03-30T23:10:57.766Z,61.70
2019-03-30T23:13:27.398Z,62.00
2019-03-30T23:15:57.031Z,62.30
2019-03-30T23:18:26.658Z,62.60
2019-03-30T23:20:56.179Z,62.80
2019-03-30T23:23:25.726Z,62.60
2019-03-30T23:25:55.288Z,62.40
2019-03-30T23:28:24.835Z,62.70
2019-03-30T23:30:54.914Z,63.00
2019-03-30T23:33:24.674Z,63.50
2019-03-30T23:35:54.408Z,63.70
2019-03-30T23:38:23.870Z,63.60
2019-03-30T23:40:53.416Z,63.50
2019-03-30T23:43:22.973Z,63.90
2019-03-30T23:45:52.611Z,63.50
2019-03-30T23:48:22.201Z,63.40
2019-03-30T23:50:51.807Z,63.90
2019-03-30T23:53:21.288Z,64.00
2019-03-30T23:55:50.895Z,63.90
2019-03-30T23:58:20.522Z,64.10
